sensor_id;sensor_type;location;lat;lon;timestamp;pressure;altitude;pressure_sealevel;temperature;humidity
61474;BME280;53694;49.784;30.150;2022-11-04T00:00:09;99792.38;;;11.69;68.51
61474;BME280;53694;49.784;30.150;2022-11-04T00:01:11;99785.17;;;11.22;69.79
61474;BME280;53694;49.784;30.150;2022-11-04T00:02:13;99785.17;;;11.22;69.79
61474;BME280;53694;49.784;30.150;2022-11-04T00:03:14;99787.81;;;10.99;70.41
61474;BME280;53694;49.784;30.150;2022-11-04T00:04:17;99783.81;;;10.77;71.19
61474;BME280;53694;49.784;30.150;2022-11-04T00:05:18;99780.59;;;10.56;71.96
61474;BME280;53694;49.784;30.150;2022-11-04T00:06:20;99776.45;;;10.46;72.62
61474;BME280;53694;49.784;30.150;2022-11-04T00:07:22;99772.63;;;10.50;72.91
61474;BME280;53694;49.784;30.150;2022-11-04T00:08:23;99763.20;;;10.67;72.69
61474;BME280;53694;49.784;30.150;2022-11-04T00:09:27;99771.54;;;10.90;72.10
61474;BME280;53694;49.784;30.150;2022-11-04T00:10:29;99768.94;;;11.17;71.69
61474;BME280;53694;49.784;30.150;2022-11-04T00:11:39;99754.25;;;11.48;71.07
61474;BME280;53694;49.784;30.150;2022-11-04T00:12:42;99775.25;;;11.79;70.18
61474;BME280;53694;49.784;30.150;2022-11-04T00:13:44;99761.29;;;12.11;68.80
61474;BME280;53694;49.784;30.150;2022-11-04T00:14:46;99758.91;;;12.36;67.88
61474;BME280;53694;49.784;30.150;2022-11-04T00:15:48;99758.44;;;12.57;66.96
61474;BME280;53694;49.784;30.150;2022-11-04T00:16:49;99762.55;;;12.70;66.38
61474;BME280;53694;49.784;30.150;2022-11-04T00:17:51;99762.55;;;12.70;66.09
61474;BME280;53694;49.784;30.150;2022-11-04T00:18:53;99760.08;;;12.61;66.13
61474;BME280;53694;49.784;30.150;2022-11-04T00:19:54;99759.81;;;12.43;66.34
61474;BME280;53694;49.784;30.150;2022-11-04T00:20:56;99757.52;;;12.22;66.84
61474;BME280;53694;49.784;30.150;2022-11-04T00:21:57;99748.92;;;12.01;67.40
61474;BME280;53694;49.784;30.150;2022-11-04T00:22:59;99751.66;;;11.78;67.99
61474;BME280;53694;49.784;30.150;2022-11-04T00:24:00;99746.56;;;11.57;68.50
61474;BME280;53694;49.784;30.150;2022-11-04T00:25:03;99745.78;;;11.37;68.96
61474;BME280;53694;49.784;30.150;2022-11-04T00:26:07;99749.36;;;11.18;69.49
61474;BME280;53694;49.784;30.150;2022-11-04T00:27:11;99750.14;;;10.99;70.03
61474;BME280;53694;49.784;30.150;2022-11-04T00:28:15;99747.81;;;10.82;70.58
61474;BME280;53694;49.784;30.150;2022-11-04T00:29:17;99754.17;;;10.67;71.35
61474;BME280;53694;49.784;30.150;2022-11-04T00:30:18;99741.86;;;10.61;72.00
61474;BME280;53694;49.784;30.150;2022-11-04T00:31:20;99745.19;;;10.70;71.96
61474;BME280;53694;49.784;30.150;2022-11-04T00:32:22;99737.36;;;10.88;71.87
61474;BME280;53694;49.784;30.150;2022-11-04T00:33:23;99744.16;;;11.13;71.28
61474;BME280;53694;49.784;30.150;2022-11-04T00:34:25;99752.16;;;11.41;70.52
61474;BME280;53694;49.784;30.150;2022-11-04T00:35:26;99749.94;;;11.70;69.87
61474;BME280;53694;49.784;30.150;2022-11-04T00:36:28;99753.63;;;12.00;69.23
61474;BME280;53694;49.784;30.150;2022-11-04T00:37:30;99752.14;;;12.30;68.20
61474;BME280;53694;49.784;30.150;2022-11-04T00:38:31;99759.66;;;12.59;66.40
61474;BME280;53694;49.784;30.150;2022-11-04T00:39:33;99759.66;;;12.59;66.40
61474;BME280;53694;49.784;30.150;2022-11-04T00:40:34;99764.27;;;12.51;66.24
61474;BME280;53694;49.784;30.150;2022-11-04T00:41:36;99758.12;;;12.35;66.43
61474;BME280;53694;49.784;30.150;2022-11-04T00:42:37;99753.06;;;12.14;66.85
61474;BME280;53694;49.784;30.150;2022-11-04T00:43:39;99762.52;;;11.90;67.24
61474;BME280;53694;49.784;30.150;2022-11-04T00:44:40;99758.50;;;11.65;67.92
61474;BME280;53694;49.784;30.150;2022-11-04T00:45:42;99759.23;;;11.42;68.67
61474;BME280;53694;49.784;30.150;2022-11-04T00:46:44;99761.56;;;11.21;69.43
61474;BME280;53694;49.784;30.150;2022-11-04T00:47:45;99765.49;;;11.00;70.09
61474;BME280;53694;49.784;30.150;2022-11-04T00:48:47;99770.58;;;10.83;70.75
61474;BME280;53694;49.784;30.150;2022-11-04T00:49:48;99769.48;;;10.68;71.52
61474;BME280;53694;49.784;30.150;2022-11-04T00:50:50;99768.89;;;10.59;72.04
61474;BME280;53694;49.784;30.150;2022-11-04T00:51:51;99769.03;;;10.66;72.22
61474;BME280;53694;49.784;30.150;2022-11-04T00:53:00;99774.95;;;10.84;71.97
61474;BME280;53694;49.784;30.150;2022-11-04T00:54:01;99782.11;;;11.08;71.46
61474;BME280;53694;49.784;30.150;2022-11-04T00:55:04;99781.91;;;11.36;70.77
61474;BME280;53694;49.784;30.150;2022-11-04T00:56:06;99775.00;;;11.65;69.96
61474;BME280;53694;49.784;30.150;2022-11-04T00:57:11;99772.35;;;11.91;69.05
61474;BME280;53694;49.784;30.150;2022-11-04T00:58:13;99772.78;;;12.16;68.40
61474;BME280;53694;49.784;30.150;2022-11-04T00:59:14;99773.50;;;12.36;67.72
61474;BME280;53694;49.784;30.150;2022-11-04T01:00:16;99777.90;;;12.41;67.20
61474;BME280;53694;49.784;30.150;2022-11-04T01:01:18;99771.47;;;12.33;67.06
61474;BME280;53694;49.784;30.150;2022-11-04T01:02:20;99765.31;;;12.17;67.14
61474;BME280;53694;49.784;30.150;2022-11-04T01:03:22;99774.00;;;11.96;67.65
61474;BME280;53694;49.784;30.150;2022-11-04T01:04:23;99774.39;;;11.75;68.17
61474;BME280;53694;49.784;30.150;2022-11-04T01:05:25;99773.99;;;11.54;68.69
61474;BME280;53694;49.784;30.150;2022-11-04T01:06:27;99774.75;;;11.31;69.42
61474;BME280;53694;49.784;30.150;2022-11-04T01:07:29;99773.16;;;11.11;70.06
61474;BME280;53694;49.784;30.150;2022-11-04T01:08:31;99771.99;;;10.92;70.67
61474;BME280;53694;49.784;30.150;2022-11-04T01:09:33;99772.03;;;10.76;71.31
61474;BME280;53694;49.784;30.150;2022-11-04T01:10:35;99772.23;;;10.68;71.87
61474;BME280;53694;49.784;30.150;2022-11-04T01:11:37;99768.41;;;10.72;72.00
61474;BME280;53694;49.784;30.150;2022-11-04T01:12:39;99773.41;;;10.86;71.93
61474;BME280;53694;49.784;30.150;2022-11-04T01:13:40;99763.66;;;11.08;71.61
61474;BME280;53694;49.784;30.150;2022-11-04T01:14:42;99766.92;;;11.33;70.88
61474;BME280;53694;49.784;30.150;2022-11-04T01:15:43;99767.89;;;11.64;70.32
61474;BME280;53694;49.784;30.150;2022-11-04T01:16:45;99771.56;;;11.91;69.10
61474;BME280;53694;49.784;30.150;2022-11-04T01:17:48;99762.55;;;12.17;68.39
61474;BME280;53694;49.784;30.150;2022-11-04T01:18:50;99773.59;;;12.43;67.56
61474;BME280;53694;49.784;30.150;2022-11-04T01:19:51;99764.73;;;12.57;66.25
61474;BME280;53694;49.784;30.150;2022-11-04T01:20:53;99767.08;;;12.55;66.19
61474;BME280;53694;49.784;30.150;2022-11-04T01:21:55;99770.83;;;12.43;66.26
61474;BME280;53694;49.784;30.150;2022-11-04T01:22:56;99759.48;;;12.22;66.64
61474;BME280;53694;49.784;30.150;2022-11-04T01:23:58;99760.69;;;11.98;67.24
61474;BME280;53694;49.784;30.150;2022-11-04T01:25:00;99762.97;;;11.73;68.00
61474;BME280;53694;49.784;30.150;2022-11-04T01:26:11;99762.84;;;11.46;68.56
61474;BME280;53694;49.784;30.150;2022-11-04T01:27:12;99758.81;;;11.21;69.38
61474;BME280;53694;49.784;30.150;2022-11-04T01:28:14;99751.59;;;10.93;70.35
61474;BME280;53694;49.784;30.150;2022-11-04T01:29:15;99751.14;;;10.72;71.11
61474;BME280;53694;49.784;30.150;2022-11-04T01:30:18;99740.55;;;10.55;71.84
61474;BME280;53694;49.784;30.150;2022-11-04T01:31:22;99745.88;;;10.47;72.37
61474;BME280;53694;49.784;30.150;2022-11-04T01:32:24;99743.64;;;10.53;72.48
61474;BME280;53694;49.784;30.150;2022-11-04T01:33:27;99750.43;;;10.94;71.80
61474;BME280;53694;49.784;30.150;2022-11-04T01:34:29;99750.43;;;10.94;71.80
61474;BME280;53694;49.784;30.150;2022-11-04T01:35:31;99751.02;;;11.23;71.34
61474;BME280;53694;49.784;30.150;2022-11-04T01:36:32;99747.21;;;11.50;70.46
61474;BME280;53694;49.784;30.150;2022-11-04T01:37:34;99750.07;;;11.77;69.53
61474;BME280;53694;49.784;30.150;2022-11-04T01:38:36;99746.23;;;12.05;68.94
61474;BME280;53694;49.784;30.150;2022-11-04T01:39:37;99743.09;;;12.29;68.03
61474;BME280;53694;49.784;30.150;2022-11-04T01:40:40;99746.84;;;12.44;67.29
61474;BME280;53694;49.784;30.150;2022-11-04T01:41:41;99750.44;;;12.48;67.07
61474;BME280;53694;49.784;30.150;2022-11-04T01:42:43;99757.45;;;12.42;66.90
61474;BME280;53694;49.784;30.150;2022-11-04T01:43:50;99747.02;;;12.28;67.14
61474;BME280;53694;49.784;30.150;2022-11-04T01:44:57;99742.37;;;12.09;67.25
61474;BME280;53694;49.784;30.150;2022-11-04T01:46:00;99744.26;;;11.82;67.74
61474;BME280;53694;49.784;30.150;2022-11-04T01:47:03;99738.69;;;11.56;68.44
61474;BME280;53694;49.784;30.150;2022-11-04T01:48:08;99737.84;;;11.32;69.22
61474;BME280;53694;49.784;30.150;2022-11-04T01:49:34;99738.22;;;11.11;69.87
61474;BME280;53694;49.784;30.150;2022-11-04T01:50:33;99739.02;;;10.92;70.45
61474;BME280;53694;49.784;30.150;2022-11-04T01:51:38;99741.66;;;10.69;71.27
61474;BME280;53694;49.784;30.150;2022-11-04T01:53:51;99737.92;;;10.42;72.50
61474;BME280;53694;49.784;30.150;2022-11-04T01:54:56;99736.48;;;10.48;72.65
61474;BME280;53694;49.784;30.150;2022-11-04T01:56:03;99743.61;;;10.69;72.74
61474;BME280;53694;49.784;30.150;2022-11-04T01:57:07;99741.39;;;10.94;72.13
61474;BME280;53694;49.784;30.150;2022-11-04T01:58:13;99734.94;;;11.25;71.33
61474;BME280;53694;49.784;30.150;2022-11-04T01:59:21;99740.27;;;11.57;70.35
61474;BME280;53694;49.784;30.150;2022-11-04T02:00:23;99744.70;;;11.84;69.21
61474;BME280;53694;49.784;30.150;2022-11-04T02:01:25;99740.41;;;12.10;68.34
61474;BME280;53694;49.784;30.150;2022-11-04T02:02:26;99753.72;;;12.31;67.54
61474;BME280;53694;49.784;30.150;2022-11-04T02:03:42;99742.50;;;12.43;66.94
61474;BME280;53694;49.784;30.150;2022-11-04T02:04:40;99741.33;;;12.44;66.74
61474;BME280;53694;49.784;30.150;2022-11-04T02:05:43;99739.16;;;12.30;66.59
61474;BME280;53694;49.784;30.150;2022-11-04T02:06:47;99742.02;;;12.11;67.07
61474;BME280;53694;49.784;30.150;2022-11-04T02:07:52;99735.34;;;11.89;67.63
61474;BME280;53694;49.784;30.150;2022-11-04T02:08:53;99739.66;;;11.67;68.17
61474;BME280;53694;49.784;30.150;2022-11-04T02:09:55;99739.27;;;11.45;68.80
61474;BME280;53694;49.784;30.150;2022-11-04T02:10:59;99740.44;;;11.25;69.43
61474;BME280;53694;49.784;30.150;2022-11-04T02:12:01;99744.80;;;11.07;70.08
61474;BME280;53694;49.784;30.150;2022-11-04T02:13:03;99742.03;;;10.87;70.69
61474;BME280;53694;49.784;30.150;2022-11-04T02:14:05;99745.64;;;10.72;71.47
61474;BME280;53694;49.784;30.150;2022-11-04T02:15:07;99744.69;;;10.64;71.89
61474;BME280;53694;49.784;30.150;2022-11-04T02:16:55;99735.03;;;10.70;72.08
61474;BME280;53694;49.784;30.150;2022-11-04T02:28:04;99750.34;;;11.91;67.36
61474;BME280;53694;49.784;30.150;2022-11-04T02:29:24;99744.30;;;11.63;68.00
61474;BME280;53694;49.784;30.150;2022-11-04T02:30:22;99742.92;;;11.30;69.03
61474;BME280;53694;49.784;30.150;2022-11-04T02:32:56;99740.66;;;10.78;70.58
61474;BME280;53694;49.784;30.150;2022-11-04T02:34:03;99739.77;;;10.54;71.49
61474;BME280;53694;49.784;30.150;2022-11-04T02:35:22;99733.42;;;10.34;72.26
61474;BME280;53694;49.784;30.150;2022-11-04T02:38:59;99727.50;;;10.67;72.59
61474;BME280;53694;49.784;30.150;2022-11-04T02:40:07;99731.35;;;11.01;72.19
61474;BME280;53694;49.784;30.150;2022-11-04T02:41:19;99724.16;;;11.36;71.02
61474;BME280;53694;49.784;30.150;2022-11-04T02:42:28;99724.73;;;11.68;69.65
61474;BME280;53694;49.784;30.150;2022-11-04T02:44:51;99722.64;;;12.30;67.71
61474;BME280;53694;49.784;30.150;2022-11-04T02:47:12;99718.17;;;12.48;66.50
61474;BME280;53694;49.784;30.150;2022-11-04T02:48:19;99716.80;;;12.35;66.66
61474;BME280;53694;49.784;30.150;2022-11-04T02:49:39;99724.02;;;12.17;66.85
61474;BME280;53694;49.784;30.150;2022-11-04T02:50:50;99718.11;;;11.92;67.29
61474;BME280;53694;49.784;30.150;2022-11-04T02:53:13;99721.91;;;11.41;68.75
61474;BME280;53694;49.784;30.150;2022-11-04T02:54:14;99725.41;;;11.19;69.27
61474;BME280;53694;49.784;30.150;2022-11-04T02:55:25;99723.03;;;10.98;69.95
61474;BME280;53694;49.784;30.150;2022-11-04T02:56:28;99722.22;;;10.78;70.56
61474;BME280;53694;49.784;30.150;2022-11-04T02:57:34;99722.55;;;10.57;71.28
61474;BME280;53694;49.784;30.150;2022-11-04T02:58:39;99722.61;;;10.41;71.96
61474;BME280;53694;49.784;30.150;2022-11-04T02:59:49;99716.50;;;10.32;72.46
61474;BME280;53694;49.784;30.150;2022-11-04T03:00:50;99723.69;;;10.37;72.63
61474;BME280;53694;49.784;30.150;2022-11-04T03:01:54;99724.08;;;10.55;72.58
61474;BME280;53694;49.784;30.150;2022-11-04T03:03:04;99722.67;;;10.80;72.19
61474;BME280;53694;49.784;30.150;2022-11-04T03:04:05;99720.52;;;11.09;71.32
61474;BME280;53694;49.784;30.150;2022-11-04T03:05:10;99724.58;;;11.38;70.40
61474;BME280;53694;49.784;30.150;2022-11-04T03:06:14;99713.69;;;11.64;69.58
61474;BME280;53694;49.784;30.150;2022-11-04T03:07:21;99710.23;;;11.90;68.80
61474;BME280;53694;49.784;30.150;2022-11-04T03:08:40;99718.83;;;12.12;67.91
61474;BME280;53694;49.784;30.150;2022-11-04T03:09:46;99718.25;;;12.25;67.21
61474;BME280;53694;49.784;30.150;2022-11-04T03:10:50;99722.52;;;12.23;67.08
61474;BME280;53694;49.784;30.150;2022-11-04T03:11:56;99720.34;;;12.09;67.27
61474;BME280;53694;49.784;30.150;2022-11-04T03:13:16;99721.23;;;11.90;67.67
61474;BME280;53694;49.784;30.150;2022-11-04T03:14:21;99715.34;;;11.69;67.89
61474;BME280;53694;49.784;30.150;2022-11-04T03:15:26;99724.31;;;11.43;68.70
61474;BME280;53694;49.784;30.150;2022-11-04T03:19:13;99729.33;;;10.79;70.59
61474;BME280;53694;49.784;30.150;2022-11-04T03:20:19;99723.38;;;10.58;71.19
61474;BME280;53694;49.784;30.150;2022-11-04T03:21:21;99716.50;;;10.32;72.05
61474;BME280;53694;49.784;30.150;2022-11-04T03:22:26;99722.88;;;10.20;72.60
61474;BME280;53694;49.784;30.150;2022-11-04T03:23:29;99726.54;;;10.24;72.91
61474;BME280;53694;49.784;30.150;2022-11-04T03:24:31;99717.55;;;10.43;72.93
61474;BME280;53694;49.784;30.150;2022-11-04T03:25:35;99710.64;;;10.69;72.48
61474;BME280;53694;49.784;30.150;2022-11-04T03:27:50;99711.86;;;11.30;70.59
61474;BME280;53694;49.784;30.150;2022-11-04T03:30:18;99714.94;;;11.90;68.73
61474;BME280;53694;49.784;30.150;2022-11-04T03:31:31;99705.66;;;12.24;67.82
61474;BME280;53694;49.784;30.150;2022-11-04T03:32:50;99703.61;;;12.48;67.02
61474;BME280;53694;49.784;30.150;2022-11-04T03:33:50;99704.11;;;12.54;66.29
61474;BME280;53694;49.784;30.150;2022-11-04T03:34:52;99703.89;;;12.39;65.83
61474;BME280;53694;49.784;30.150;2022-11-04T03:35:54;99718.51;;;12.17;65.92
61474;BME280;53694;49.784;30.150;2022-11-04T03:36:56;99710.95;;;11.87;66.47
61474;BME280;53694;49.784;30.150;2022-11-04T03:37:58;99708.84;;;11.58;67.12
61474;BME280;53694;49.784;30.150;2022-11-04T03:39:00;99699.28;;;11.29;68.02
61474;BME280;53694;49.784;30.150;2022-11-04T03:40:02;99707.83;;;11.04;68.92
61474;BME280;53694;49.784;30.150;2022-11-04T03:41:07;99710.52;;;10.81;69.77
61474;BME280;53694;49.784;30.150;2022-11-04T03:42:10;99703.41;;;10.61;70.41
61474;BME280;53694;49.784;30.150;2022-11-04T03:43:18;99697.91;;;10.41;71.17
61474;BME280;53694;49.784;30.150;2022-11-04T03:44:18;99706.17;;;10.25;71.84
61474;BME280;53694;49.784;30.150;2022-11-04T03:45:20;99701.63;;;10.17;72.21
61474;BME280;53694;49.784;30.150;2022-11-04T03:46:22;99693.48;;;10.21;72.48
61474;BME280;53694;49.784;30.150;2022-11-04T03:47:26;99688.42;;;10.39;72.32
61474;BME280;53694;49.784;30.150;2022-11-04T03:48:28;99701.53;;;10.65;71.79
61474;BME280;53694;49.784;30.150;2022-11-04T03:49:30;99702.14;;;10.93;70.97
61474;BME280;53694;49.784;30.150;2022-11-04T03:50:40;99703.50;;;11.22;70.18
61474;BME280;53694;49.784;30.150;2022-11-04T03:51:42;99696.91;;;11.50;69.23
61474;BME280;53694;49.784;30.150;2022-11-04T03:52:44;99701.75;;;11.80;68.27
61474;BME280;53694;49.784;30.150;2022-11-04T03:53:46;99700.61;;;12.04;67.46
61474;BME280;53694;49.784;30.150;2022-11-04T03:54:47;99705.53;;;12.17;66.83
61474;BME280;53694;49.784;30.150;2022-11-04T03:56:26;99702.05;;;12.20;66.53
61474;BME280;53694;49.784;30.150;2022-11-04T04:00:08;99704.27;;;11.65;67.25
61474;BME280;53694;49.784;30.150;2022-11-04T04:02:38;99704.66;;;11.02;68.74
61474;BME280;53694;49.784;30.150;2022-11-04T04:03:34;99710.36;;;10.74;69.64
61474;BME280;53694;49.784;30.150;2022-11-04T04:04:55;99711.06;;;10.51;70.48
61474;BME280;53694;49.784;30.150;2022-11-04T04:06:15;99714.48;;;10.29;71.23
61474;BME280;53694;49.784;30.150;2022-11-04T04:07:33;99715.91;;;10.07;72.16
61474;BME280;53694;49.784;30.150;2022-11-04T04:08:39;99718.84;;;9.98;72.82
61474;BME280;53694;49.784;30.150;2022-11-04T04:09:47;99712.09;;;10.12;72.90
61474;BME280;53694;49.784;30.150;2022-11-04T04:12:21;99721.92;;;10.64;71.87
61474;BME280;53694;49.784;30.150;2022-11-04T04:14:49;99716.29;;;11.34;69.79
61474;BME280;53694;49.784;30.150;2022-11-04T04:18:33;99723.57;;;12.15;66.65
61474;BME280;53694;49.784;30.150;2022-11-04T04:19:33;99725.44;;;12.07;66.12
61474;BME280;53694;49.784;30.150;2022-11-04T04:20:36;99726.61;;;11.83;66.29
61474;BME280;53694;49.784;30.150;2022-11-04T04:21:53;99726.86;;;11.55;67.02
61474;BME280;53694;49.784;30.150;2022-11-04T04:23:00;99718.52;;;11.29;67.86
61474;BME280;53694;49.784;30.150;2022-11-04T04:24:05;99717.91;;;10.96;68.84
61474;BME280;53694;49.784;30.150;2022-11-04T04:25:09;99725.97;;;10.70;69.69
61474;BME280;53694;49.784;30.150;2022-11-04T04:26:13;99720.29;;;10.43;70.42
61474;BME280;53694;49.784;30.150;2022-11-04T04:27:15;99723.22;;;10.19;71.22
61474;BME280;53694;49.784;30.150;2022-11-04T04:28:20;99728.20;;;9.97;72.00
61474;BME280;53694;49.784;30.150;2022-11-04T04:29:23;99725.11;;;9.83;72.66
61474;BME280;53694;49.784;30.150;2022-11-04T04:30:26;99725.54;;;9.85;72.97
61474;BME280;53694;49.784;30.150;2022-11-04T04:31:29;99725.91;;;9.99;72.84
61474;BME280;53694;49.784;30.150;2022-11-04T04:32:41;99719.77;;;10.22;72.55
61474;BME280;53694;49.784;30.150;2022-11-04T04:33:43;99723.91;;;10.47;71.76
61474;BME280;53694;49.784;30.150;2022-11-04T04:34:44;99710.64;;;10.69;70.89
61474;BME280;53694;49.784;30.150;2022-11-04T04:35:52;99731.05;;;11.07;70.08
61474;BME280;53694;49.784;30.150;2022-11-04T04:37:04;99728.01;;;11.31;69.25
61474;BME280;53694;49.784;30.150;2022-11-04T04:38:07;99728.82;;;11.55;68.32
61474;BME280;53694;49.784;30.150;2022-11-04T04:39:11;99734.36;;;11.78;67.34
61474;BME280;53694;49.784;30.150;2022-11-04T04:40:16;99722.75;;;11.88;66.98
61474;BME280;53694;49.784;30.150;2022-11-04T04:41:22;99736.52;;;11.88;66.66
61474;BME280;53694;49.784;30.150;2022-11-04T04:42:24;99735.45;;;11.73;66.77
61474;BME280;53694;49.784;30.150;2022-11-04T04:43:26;99734.63;;;11.49;66.94
61474;BME280;53694;49.784;30.150;2022-11-04T04:44:28;99731.78;;;11.23;67.63
61474;BME280;53694;49.784;30.150;2022-11-04T04:45:32;99732.06;;;10.98;68.44
61474;BME280;53694;49.784;30.150;2022-11-04T04:46:35;99732.33;;;10.74;69.17
61474;BME280;53694;49.784;30.150;2022-11-04T04:47:41;99736.94;;;10.50;69.90
61474;BME280;53694;49.784;30.150;2022-11-04T04:48:43;99734.86;;;10.28;70.59
61474;BME280;53694;49.784;30.150;2022-11-04T04:49:55;99729.97;;;10.06;71.40
61474;BME280;53694;49.784;30.150;2022-11-04T04:50:58;99733.44;;;9.87;72.05
61474;BME280;53694;49.784;30.150;2022-11-04T04:52:01;99721.75;;;9.74;72.75
61474;BME280;53694;49.784;30.150;2022-11-04T04:53:03;99724.66;;;9.81;72.95
61474;BME280;53694;49.784;30.150;2022-11-04T04:54:05;99731.83;;;10.01;72.75
61474;BME280;53694;49.784;30.150;2022-11-04T04:55:07;99732.82;;;10.25;72.31
61474;BME280;53694;49.784;30.150;2022-11-04T04:56:09;99736.65;;;10.56;71.70
61474;BME280;53694;49.784;30.150;2022-11-04T04:57:11;99743.64;;;10.88;70.80
61474;BME280;53694;49.784;30.150;2022-11-04T04:58:12;99743.78;;;11.15;69.58
61474;BME280;53694;49.784;30.150;2022-11-04T04:59:14;99736.03;;;11.40;69.04
61474;BME280;53694;49.784;30.150;2022-11-04T05:00:18;99742.41;;;11.67;68.51
61474;BME280;53694;49.784;30.150;2022-11-04T05:01:20;99740.81;;;11.85;67.78
61474;BME280;53694;49.784;30.150;2022-11-04T05:02:21;99733.03;;;11.91;66.92
61474;BME280;53694;49.784;30.150;2022-11-04T05:03:23;99736.00;;;11.82;66.90
61474;BME280;53694;49.784;30.150;2022-11-04T05:04:25;99735.73;;;11.68;67.03
61474;BME280;53694;49.784;30.150;2022-11-04T05:05:26;99738.55;;;11.48;67.47
61474;BME280;53694;49.784;30.150;2022-11-04T05:06:28;99729.52;;;11.29;67.77
61474;BME280;53694;49.784;30.150;2022-11-04T05:07:29;99737.72;;;11.06;68.23
61474;BME280;53694;49.784;30.150;2022-11-04T05:08:31;99737.27;;;10.84;68.75
61474;BME280;53694;49.784;30.150;2022-11-04T05:09:32;99742.31;;;10.63;69.34
61474;BME280;53694;49.784;30.150;2022-11-04T05:10:34;99737.13;;;10.42;69.89
61474;BME280;53694;49.784;30.150;2022-11-04T05:11:36;99742.19;;;10.24;70.46
61474;BME280;53694;49.784;30.150;2022-11-04T05:12:38;99745.73;;;10.09;71.03
61474;BME280;53694;49.784;30.150;2022-11-04T05:13:40;99750.88;;;9.94;71.83
61474;BME280;53694;49.784;30.150;2022-11-04T05:14:41;99746.78;;;9.88;72.33
61474;BME280;53694;49.784;30.150;2022-11-04T05:15:43;99747.31;;;9.94;72.48
61474;BME280;53694;49.784;30.150;2022-11-04T05:16:45;99742.28;;;10.12;72.27
61474;BME280;53694;49.784;30.150;2022-11-04T05:17:46;99755.02;;;10.36;71.56
61474;BME280;53694;49.784;30.150;2022-11-04T05:18:50;99755.25;;;10.62;70.77
61474;BME280;53694;49.784;30.150;2022-11-04T05:19:52;99758.52;;;10.87;69.86
61474;BME280;53694;49.784;30.150;2022-11-04T05:20:54;99761.45;;;11.14;69.33
61474;BME280;53694;49.784;30.150;2022-11-04T05:21:55;99763.45;;;11.36;68.37
61474;BME280;53694;49.784;30.150;2022-11-04T05:22:57;99760.55;;;11.48;67.69
61474;BME280;53694;49.784;30.150;2022-11-04T05:23:58;99767.22;;;11.47;67.53
61474;BME280;53694;49.784;30.150;2022-11-04T05:25:00;99762.66;;;11.36;67.45
61474;BME280;53694;49.784;30.150;2022-11-04T05:26:02;99762.23;;;11.14;67.67
61474;BME280;53694;49.784;30.150;2022-11-04T05:27:03;99761.71;;;10.89;68.22
61474;BME280;53694;49.784;30.150;2022-11-04T05:28:06;99759.21;;;10.65;68.93
61474;BME280;53694;49.784;30.150;2022-11-04T05:29:08;99763.80;;;10.41;69.42
61474;BME280;53694;49.784;30.150;2022-11-04T05:30:11;99768.99;;;10.15;70.21
61474;BME280;53694;49.784;30.150;2022-11-04T05:31:12;99769.62;;;9.92;71.18
61474;BME280;53694;49.784;30.150;2022-11-04T05:32:14;99768.38;;;9.74;71.84
61474;BME280;53694;49.784;30.150;2022-11-04T05:33:15;99773.13;;;9.61;72.32
61474;BME280;53694;49.784;30.150;2022-11-04T05:34:17;99768.80;;;9.60;72.65
61474;BME280;53694;49.784;30.150;2022-11-04T05:35:18;99775.34;;;9.71;72.50
61474;BME280;53694;49.784;30.150;2022-11-04T05:36:20;99775.02;;;9.89;72.17
61474;BME280;53694;49.784;30.150;2022-11-04T05:37:21;99777.95;;;10.12;71.62
61474;BME280;53694;49.784;30.150;2022-11-04T05:38:23;99774.69;;;10.38;70.87
61474;BME280;53694;49.784;30.150;2022-11-04T05:39:24;99776.06;;;10.63;69.98
61474;BME280;53694;49.784;30.150;2022-11-04T05:40:26;99782.11;;;10.88;69.38
61474;BME280;53694;49.784;30.150;2022-11-04T05:41:28;99791.23;;;11.12;68.30
61474;BME280;53694;49.784;30.150;2022-11-04T05:42:30;99782.05;;;11.23;67.51
61474;BME280;53694;49.784;30.150;2022-11-04T05:43:32;99779.67;;;11.22;67.25
61474;BME280;53694;49.784;30.150;2022-11-04T05:44:34;99775.53;;;11.12;67.33
61474;BME280;53694;49.784;30.150;2022-11-04T05:45:35;99779.07;;;10.93;67.41
61474;BME280;53694;49.784;30.150;2022-11-04T05:46:37;99785.69;;;10.73;67.80
61474;BME280;53694;49.784;30.150;2022-11-04T05:47:40;99777.61;;;10.45;68.65
61474;BME280;53694;49.784;30.150;2022-11-04T05:48:41;99778.11;;;10.19;69.23
61474;BME280;53694;49.784;30.150;2022-11-04T05:49:43;99776.36;;;9.95;70.05
61474;BME280;53694;49.784;30.150;2022-11-04T05:50:44;99773.40;;;9.72;70.97
61474;BME280;53694;49.784;30.150;2022-11-04T05:51:46;99778.88;;;9.56;71.76
61474;BME280;53694;49.784;30.150;2022-11-04T05:52:47;99779.47;;;9.49;72.36
61474;BME280;53694;49.784;30.150;2022-11-04T05:53:49;99783.53;;;9.56;72.48
61474;BME280;53694;49.784;30.150;2022-11-04T05:54:51;99780.83;;;9.71;71.96
61474;BME280;53694;49.784;30.150;2022-11-04T05:55:52;99784.03;;;9.89;71.45
61474;BME280;53694;49.784;30.150;2022-11-04T05:56:54;99781.83;;;10.11;70.92
61474;BME280;53694;49.784;30.150;2022-11-04T05:57:55;99788.33;;;10.34;70.15
61474;BME280;53694;49.784;30.150;2022-11-04T05:58:57;99777.56;;;10.61;69.62
61474;BME280;53694;49.784;30.150;2022-11-04T05:59:58;99790.35;;;10.88;68.88
61474;BME280;53694;49.784;30.150;2022-11-04T06:01:22;99788.55;;;11.15;68.31
61474;BME280;53694;49.784;30.150;2022-11-04T06:02:24;99791.73;;;11.37;67.37
61474;BME280;53694;49.784;30.150;2022-11-04T06:03:25;99787.48;;;11.39;66.53
61474;BME280;53694;49.784;30.150;2022-11-04T06:04:27;99792.33;;;11.26;66.50
61474;BME280;53694;49.784;30.150;2022-11-04T06:05:29;99797.81;;;11.07;66.85
61474;BME280;53694;49.784;30.150;2022-11-04T06:06:33;99796.13;;;10.83;67.32
61474;BME280;53694;49.784;30.150;2022-11-04T06:07:35;99788.91;;;10.59;68.04